Terminal Aerodrome Forecast
Issued by NWS

Home | Current Version | Previous Version | Text Only | Print | Product List | Glossary Off
Versions: 1 2 3 4 5 6 7 8 9 10 11 12

000
FTUS43 KICT 172300
TAFSLN
TAF
KSLN 172322Z 1800/1824 VRB03KT P6SM SKC
     FM180300 17006KT P6SM SKC
     FM181400 18011KT P6SM SKC
     FM181700 18016G23KT P6SM SCT035=

USA.gov is the U.S. government's official web portal to all federal, state and local government web resources and services.